NV34 weather

University Medical Center-Southern Nevada Heliport
Las Vegas, Nevada, United States

Public forecast

Using degrees Fahrenheit for public forecast. Weather courtesy of forecast.io.

Closest aviation weather report (METAR) to University Medical Center-Southern Nevada Heliport

Closest report is North Las Vegas Airport, 3.3 nm (6.2 km) NNW. Retrieved 2020/02/25 21:53 UTC (40 minutes ago):

KVGT 252153Z 07016G24KT 10SM CLR 15/M09 A3039 RMK AO2 SLP303 T01501094

Closest aviation forecast (TAF) to University Medical Center-Southern Nevada Heliport

Closest forecast is North Las Vegas Airport, 3.3 nm (6.2 km) NNW. Retrieved 2020/02/25 18:30 UTC (4 hours ago):

TAF KVGT 251727Z 2518/2618 04017G26KT P6SM SKC FM260100 10011KT P6SM SKC FM260500 VRB06KT P6SM SKC FM261700 14006KT P6SM SKC